createdAt,value
2023-04-27T00:01:49.778Z,86.00
2023-04-27T00:04:16.716Z,86.20
2023-04-27T00:06:43.379Z,85.35
2023-04-27T00:09:09.855Z,85.63
2023-04-27T00:11:36.238Z,87.63
2023-04-27T00:14:02.656Z,87.44
2023-04-27T00:16:29.108Z,87.38
2023-04-27T00:18:55.767Z,87.02
2023-04-27T00:21:22.120Z,87.33
2023-04-27T00:23:48.487Z,88.10
2023-04-27T00:26:14.896Z,88.29
2023-04-27T00:28:41.258Z,88.98
2023-04-27T00:31:07.604Z,88.81
2023-04-27T00:33:34.000Z,87.63
2023-04-27T00:36:01.563Z,87.63
2023-04-27T00:38:29.098Z,88.27
2023-04-27T00:41:05.528Z,88.68
2023-04-27T00:43:32.716Z,89.44
2023-04-27T00:46:00.140Z,89.92
2023-04-27T00:48:26.894Z,89.00
2023-04-27T00:50:53.280Z,88.47
2023-04-27T00:53:19.812Z,90.81
2023-04-27T00:55:47.059Z,90.94
2023-04-27T00:58:13.438Z,90.09
2023-04-27T01:00:40.254Z,90.07
2023-04-27T01:03:07.476Z,91.82
2023-04-27T01:05:34.767Z,91.18
2023-04-27T01:08:01.242Z,90.59
2023-04-27T01:10:28.409Z,90.98
2023-04-27T01:12:54.965Z,90.93
2023-04-27T01:15:21.354Z,91.60
2023-04-27T01:17:48.618Z,90.97
2023-04-27T01:20:15.401Z,91.34
2023-04-27T01:22:41.798Z,92.41
2023-04-27T01:25:08.689Z,91.71
2023-04-27T01:27:35.106Z,90.39
2023-04-27T01:30:01.545Z,92.06
2023-04-27T01:32:27.969Z,90.61
2023-04-27T01:34:54.398Z,91.58
2023-04-27T01:37:21.151Z,92.61
2023-04-27T01:39:47.542Z,90.82
2023-04-27T01:42:13.897Z,91.55
2023-04-27T01:44:40.395Z,92.23
2023-04-27T01:47:06.769Z,91.59
2023-04-27T01:49:33.101Z,92.80
2023-04-27T01:51:59.491Z,92.25
2023-04-27T01:54:28.679Z,92.68
2023-04-27T01:56:55.537Z,93.60
2023-04-27T01:59:21.917Z,92.60
2023-04-27T02:01:48.270Z,92.16
2023-04-27T02:04:14.956Z,94.03
2023-04-27T02:06:41.593Z,94.32
2023-04-27T02:09:07.957Z,93.48
2023-04-27T02:11:34.293Z,92.67
2023-04-27T02:14:01.034Z,92.22
2023-04-27T02:16:27.446Z,91.72
2023-04-27T02:18:53.824Z,93.55
2023-04-27T02:21:20.999Z,94.21
2023-04-27T02:23:47.543Z,92.76
2023-04-27T02:26:19.167Z,92.72
2023-04-27T02:28:46.392Z,93.54
2023-04-27T02:31:14.519Z,93.09
2023-04-27T02:33:41.847Z,92.24
2023-04-27T02:36:09.035Z,92.06
2023-04-27T02:38:35.402Z,93.36
2023-04-27T02:41:01.822Z,95.53
2023-04-27T02:43:28.182Z,93.75
2023-04-27T02:45:54.532Z,93.62
2023-04-27T02:48:20.888Z,94.75
2023-04-27T02:50:47.220Z,94.04
2023-04-27T02:53:13.636Z,94.51
2023-04-27T02:55:47.525Z,93.90
2023-04-27T02:58:14.336Z,94.98
2023-04-27T03:00:41.393Z,94.55
2023-04-27T03:03:08.155Z,93.07
2023-04-27T03:05:34.703Z,92.49
2023-04-27T03:08:01.310Z,94.14
2023-04-27T03:10:27.724Z,94.76
2023-04-27T03:12:54.098Z,94.65
2023-04-27T03:15:20.445Z,94.06
2023-04-27T03:17:47.005Z,93.96
2023-04-27T03:20:13.440Z,92.91
2023-04-27T03:22:39.887Z,93.41
2023-04-27T03:25:07.169Z,94.14
2023-04-27T03:27:33.526Z,94.50
2023-04-27T03:29:59.886Z,93.87
2023-04-27T03:32:26.367Z,93.89
2023-04-27T03:34:53.268Z,94.48
2023-04-27T03:37:19.707Z,92.89
2023-04-27T03:39:46.069Z,93.30
2023-04-27T03:42:12.529Z,94.74
2023-04-27T03:44:38.883Z,94.30
2023-04-27T03:47:09.615Z,94.35
2023-04-27T03:49:36.449Z,95.06
2023-04-27T03:52:03.558Z,94.65
2023-04-27T03:54:32.008Z,95.07
2023-04-27T03:56:58.408Z,95.29
2023-04-27T03:59:24.803Z,93.46
2023-04-27T04:01:51.797Z,93.12
2023-04-27T04:04:18.357Z,94.13
2023-04-27T04:06:44.893Z,93.69
2023-04-27T04:09:12.678Z,93.37
2023-04-27T04:11:39.290Z,94.09
2023-04-27T04:14:05.826Z,93.84
2023-04-27T04:16:33.806Z,94.19
2023-04-27T04:19:00.149Z,94.30
2023-04-27T04:21:26.665Z,93.86
2023-04-27T04:23:53.066Z,93.85
2023-04-27T04:26:20.434Z,93.67
2023-04-27T04:28:46.801Z,93.28
2023-04-27T04:31:13.401Z,94.20
2023-04-27T04:33:39.788Z,94.57
2023-04-27T04:36:06.770Z,95.29
2023-04-27T04:38:33.268Z,94.82
2023-04-27T04:40:59.736Z,94.67
2023-04-27T04:43:26.740Z,94.39
2023-04-27T04:45:53.150Z,93.17
2023-04-27T04:48:20.319Z,92.51
2023-04-27T04:50:46.691Z,92.69
2023-04-27T04:53:13.161Z,91.42
2023-04-27T04:55:39.507Z,90.92
2023-04-27T04:58:06.108Z,90.84
2023-04-27T05:00:32.503Z,90.64
2023-04-27T05:02:59.021Z,91.00
2023-04-27T05:05:25.953Z,89.32
2023-04-27T05:07:52.315Z,89.23
2023-04-27T05:10:18.844Z,89.33
2023-04-27T05:12:45.260Z,90.16
2023-04-27T05:15:11.909Z,89.66
2023-04-27T05:17:38.360Z,90.35
2023-04-27T05:20:05.281Z,90.76
2023-04-27T05:22:31.831Z,89.79
2023-04-27T05:24:58.983Z,90.20
2023-04-27T05:27:25.508Z,90.23
2023-04-27T05:29:51.978Z,89.48
2023-04-27T05:32:18.330Z,89.94
2023-04-27T05:34:46.201Z,89.21
2023-04-27T05:37:14.148Z,87.90
2023-04-27T05:39:40.776Z,85.76
2023-04-27T05:42:07.202Z,81.76
2023-04-27T05:44:33.615Z,79.20
2023-04-27T05:46:59.954Z,77.67
2023-04-27T05:49:26.686Z,76.26
2023-04-27T05:51:53.582Z,74.76
2023-04-27T05:54:19.967Z,74.55
2023-04-27T05:56:46.319Z,70.39
2023-04-27T05:59:13.559Z,68.39
2023-04-27T06:01:40.032Z,67.72
2023-04-27T06:04:07.082Z,67.24
2023-04-27T06:06:34.895Z,63.49
2023-04-27T06:09:01.313Z,63.17
2023-04-27T06:11:28.501Z,62.91
2023-04-27T06:13:54.925Z,63.12
2023-04-27T06:16:21.519Z,63.26
2023-04-27T06:18:50.506Z,64.13
2023-04-27T06:21:17.411Z,62.95
2023-04-27T06:23:43.786Z,61.97
2023-04-27T06:26:10.148Z,63.94
2023-04-27T06:28:36.549Z,63.37
2023-04-27T06:31:03.052Z,61.71
2023-04-27T06:33:29.419Z,59.39
2023-04-27T06:35:55.751Z,57.92
2023-04-27T06:38:22.260Z,57.42
2023-04-27T06:40:52.628Z,53.94
2023-04-27T06:43:19.221Z,51.51
2023-04-27T06:45:45.988Z,51.26
2023-04-27T06:48:12.452Z,48.18
2023-04-27T06:50:38.852Z,48.59
2023-04-27T06:53:05.275Z,45.05
2023-04-27T06:55:31.643Z,44.51
2023-04-27T06:57:57.996Z,45.21
2023-04-27T07:00:24.543Z,45.19
2023-04-27T07:02:51.626Z,44.56
2023-04-27T07:05:18.285Z,43.92
2023-04-27T07:07:44.688Z,43.70
2023-04-27T07:10:11.128Z,42.16
2023-04-27T07:12:38.577Z,44.57
2023-04-27T07:15:06.607Z,44.51
2023-04-27T07:17:33.487Z,43.41
2023-04-27T07:20:01.328Z,44.37
2023-04-27T07:22:28.868Z,45.15
2023-04-27T07:24:55.264Z,43.71
2023-04-27T07:27:22.202Z,44.78
2023-04-27T07:29:48.617Z,42.31
2023-04-27T07:32:15.169Z,43.33
2023-04-27T07:34:52.779Z,43.66
2023-04-27T07:37:20.428Z,41.05
2023-04-27T07:39:47.308Z,42.58
2023-04-27T07:42:15.270Z,41.28
2023-04-27T07:44:42.423Z,41.18
2023-04-27T07:47:08.811Z,40.57
2023-04-27T07:49:35.831Z,36.92
2023-04-27T07:52:02.199Z,38.15
2023-04-27T07:54:28.539Z,39.30
2023-04-27T07:56:55.070Z,38.08
2023-04-27T07:59:21.637Z,39.61
2023-04-27T08:01:48.100Z,39.88
2023-04-27T08:04:16.151Z,40.59
2023-04-27T08:06:43.611Z,40.16
2023-04-27T08:09:10.313Z,38.26
2023-04-27T08:11:36.783Z,39.52
2023-04-27T08:14:03.262Z,39.40
2023-04-27T08:16:29.680Z,39.43
2023-04-27T08:18:56.835Z,36.86
2023-04-27T08:21:23.845Z,34.84
2023-04-27T08:23:50.283Z,35.91
2023-04-27T08:26:16.652Z,37.01
2023-04-27T08:28:42.996Z,36.55
2023-04-27T08:31:09.407Z,37.52
2023-04-27T08:33:35.811Z,35.33
2023-04-27T08:36:02.241Z,36.89
2023-04-27T08:38:28.575Z,36.35
2023-04-27T08:40:55.000Z,37.43
2023-04-27T08:43:21.389Z,37.41
2023-04-27T08:45:50.238Z,37.76
2023-04-27T08:48:16.768Z,36.35
2023-04-27T08:50:44.712Z,35.60
2023-04-27T08:53:22.105Z,37.00
2023-04-27T08:55:51.696Z,36.98
2023-04-27T08:58:18.118Z,33.96
2023-04-27T09:00:45.810Z,35.09
2023-04-27T09:03:25.598Z,37.00
2023-04-27T09:06:03.533Z,37.59
2023-04-27T09:08:46.519Z,39.22
2023-04-27T09:11:30.004Z,37.91
2023-04-27T09:13:58.541Z,37.36
2023-04-27T09:16:28.297Z,37.89
2023-04-27T09:18:56.502Z,36.08
2023-04-27T09:21:24.671Z,34.97
2023-04-27T09:23:51.370Z,34.96
2023-04-27T09:26:22.903Z,35.60
2023-04-27T09:28:51.346Z,35.98
2023-04-27T09:31:18.508Z,34.02
2023-04-27T09:33:46.189Z,33.86
2023-04-27T09:36:13.616Z,33.40
2023-04-27T09:38:40.180Z,34.13
2023-04-27T09:41:07.907Z,35.33
2023-04-27T09:43:34.556Z,39.15
2023-04-27T09:46:01.556Z,36.21
2023-04-27T09:48:28.026Z,39.76
2023-04-27T09:50:54.468Z,37.57
2023-04-27T09:53:36.853Z,38.36
2023-04-27T09:56:23.643Z,39.17
2023-04-27T09:58:53.024Z,39.24
2023-04-27T10:01:34.295Z,40.92
2023-04-27T10:04:15.732Z,41.48
2023-04-27T10:07:00.308Z,40.09
2023-04-27T10:09:30.413Z,42.31
2023-04-27T10:11:56.910Z,43.98
2023-04-27T10:14:24.452Z,43.13
2023-04-27T10:16:54.060Z,43.75
2023-04-27T10:19:21.972Z,44.97
2023-04-27T10:22:03.564Z,43.34
2023-04-27T10:24:37.744Z,44.33
2023-04-27T10:27:06.788Z,43.89
2023-04-27T10:29:41.993Z,42.66
2023-04-27T10:32:11.666Z,45.26
2023-04-27T10:34:40.551Z,45.25
2023-04-27T10:37:11.874Z,42.57
2023-04-27T10:39:48.450Z,45.23
2023-04-27T10:42:26.113Z,43.06
2023-04-27T10:44:57.396Z,44.88
2023-04-27T10:47:24.558Z,45.84
2023-04-27T10:49:54.514Z,44.57
2023-04-27T10:52:20.969Z,44.32
2023-04-27T10:54:47.405Z,45.80
2023-04-27T10:57:14.041Z,43.14
2023-04-27T10:59:51.936Z,46.07
2023-04-27T11:02:26.465Z,45.34
2023-04-27T11:04:53.058Z,43.42
2023-04-27T11:07:26.664Z,45.02
2023-04-27T11:09:53.658Z,45.51
2023-04-27T11:12:20.060Z,43.02
2023-04-27T11:14:46.524Z,46.75
2023-04-27T11:17:13.349Z,44.06
2023-04-27T11:19:48.682Z,44.77
2023-04-27T11:22:16.871Z,46.75
2023-04-27T11:24:48.875Z,43.83
2023-04-27T11:27:15.821Z,44.87
2023-04-27T11:29:42.503Z,45.46
2023-04-27T11:32:08.930Z,45.40
2023-04-27T11:34:38.785Z,45.04
2023-04-27T11:37:18.080Z,46.27
2023-04-27T11:39:45.755Z,43.64
2023-04-27T11:42:15.033Z,44.05
2023-04-27T11:44:41.407Z,45.75
2023-04-27T11:47:09.163Z,43.85
2023-04-27T11:49:37.549Z,46.73
2023-04-27T11:52:04.281Z,45.45
2023-04-27T11:54:31.248Z,44.27
2023-04-27T11:57:05.913Z,45.42
2023-04-27T11:59:32.469Z,43.33
2023-04-27T12:02:00.059Z,43.15
2023-04-27T12:04:27.371Z,42.75
2023-04-27T12:06:54.087Z,44.51
2023-04-27T12:09:20.488Z,43.62
2023-04-27T12:11:47.206Z,45.57
2023-04-27T12:14:13.834Z,45.35
2023-04-27T12:16:40.426Z,43.46
2023-04-27T12:19:07.286Z,44.66
2023-04-27T12:21:34.004Z,45.34
2023-04-27T12:24:00.441Z,45.46
2023-04-27T12:26:26.866Z,45.21
2023-04-27T12:28:53.225Z,44.37
2023-04-27T12:31:26.927Z,44.36
2023-04-27T12:33:54.163Z,43.29
2023-04-27T12:36:20.513Z,44.38
2023-04-27T12:38:47.113Z,42.37
2023-04-27T12:41:13.610Z,43.10
2023-04-27T12:43:41.162Z,43.05
2023-04-27T12:46:07.785Z,42.84
2023-04-27T12:48:34.223Z,44.28
2023-04-27T12:51:00.750Z,45.10
2023-04-27T12:53:28.236Z,44.90
2023-04-27T12:55:54.607Z,44.42
2023-04-27T12:58:20.989Z,42.69
2023-04-27T13:00:47.365Z,44.54
2023-04-27T13:03:14.256Z,42.93
2023-04-27T13:05:40.665Z,44.97
2023-04-27T13:08:07.074Z,47.13
2023-04-27T13:10:33.524Z,46.14
2023-04-27T13:12:59.984Z,45.88
2023-04-27T13:15:26.443Z,45.52
2023-04-27T13:17:54.336Z,45.51
2023-04-27T13:20:21.090Z,44.06
2023-04-27T13:22:48.121Z,46.39
2023-04-27T13:25:16.469Z,46.20
2023-04-27T13:27:42.843Z,44.80
2023-04-27T13:30:09.749Z,42.58
2023-04-27T13:32:36.483Z,44.89
2023-04-27T13:35:03.875Z,46.14
2023-04-27T13:37:30.357Z,45.83
2023-04-27T13:39:56.721Z,45.74
2023-04-27T13:42:29.160Z,45.65
2023-04-27T13:44:56.825Z,44.89
2023-04-27T13:47:23.370Z,44.79
2023-04-27T13:49:49.835Z,47.68
2023-04-27T13:52:16.304Z,45.17
2023-04-27T13:54:42.676Z,46.71
2023-04-27T13:57:09.042Z,46.90
2023-04-27T13:59:35.375Z,47.03
2023-04-27T14:02:01.765Z,45.15
2023-04-27T14:04:28.159Z,46.57
2023-04-27T14:06:54.606Z,47.60
2023-04-27T14:09:20.953Z,47.04
2023-04-27T14:11:56.436Z,48.05
2023-04-27T14:14:23.710Z,45.60
2023-04-27T14:16:53.051Z,46.70
2023-04-27T14:19:20.603Z,46.82
2023-04-27T14:21:48.065Z,45.97
2023-04-27T14:24:14.746Z,46.67
2023-04-27T14:26:43.984Z,45.71
2023-04-27T14:29:11.325Z,47.08
2023-04-27T14:31:39.247Z,45.71
2023-04-27T14:34:06.871Z,49.37
2023-04-27T14:36:33.417Z,46.31
2023-04-27T14:39:04.144Z,47.34
2023-04-27T14:41:30.674Z,47.63
2023-04-27T14:43:57.039Z,48.74
2023-04-27T14:46:23.597Z,47.86
2023-04-27T14:48:50.114Z,48.45
2023-04-27T14:51:17.050Z,47.67
2023-04-27T14:53:44.057Z,48.36
2023-04-27T14:56:11.789Z,49.19
2023-04-27T14:58:38.621Z,49.06
2023-04-27T15:01:05.136Z,49.21
2023-04-27T15:03:34.653Z,49.63
2023-04-27T15:06:02.408Z,49.00
2023-04-27T15:08:31.305Z,48.48
2023-04-27T15:10:59.679Z,49.34
2023-04-27T15:13:27.025Z,50.09
2023-04-27T15:15:58.026Z,49.03
2023-04-27T15:18:25.521Z,49.49
2023-04-27T15:20:56.418Z,47.69
2023-04-27T15:23:23.770Z,47.86
2023-04-27T15:25:51.753Z,48.74
2023-04-27T15:28:18.578Z,47.79
2023-04-27T15:30:45.364Z,48.31
2023-04-27T15:33:13.006Z,48.29
2023-04-27T15:35:40.386Z,47.61
2023-04-27T15:38:08.191Z,50.00
2023-04-27T15:40:35.084Z,47.11
2023-04-27T15:43:01.827Z,48.44
2023-04-27T15:45:29.165Z,48.48
2023-04-27T15:47:55.680Z,49.28
2023-04-27T15:50:22.871Z,48.06
2023-04-27T15:52:49.381Z,48.24
2023-04-27T15:55:16.488Z,49.02
2023-04-27T15:57:42.865Z,48.64
2023-04-27T16:00:12.669Z,48.36
2023-04-27T16:02:40.168Z,47.80
2023-04-27T16:05:08.092Z,49.66
2023-04-27T16:07:36.242Z,48.43
2023-04-27T16:10:04.109Z,50.03
2023-04-27T16:12:30.675Z,51.00
2023-04-27T16:14:57.372Z,49.79
2023-04-27T16:17:28.025Z,48.46
2023-04-27T16:19:54.865Z,49.72
2023-04-27T16:22:22.146Z,49.10
2023-04-27T16:24:48.806Z,49.36
2023-04-27T16:27:16.427Z,51.83
2023-04-27T16:29:42.945Z,50.34
2023-04-27T16:32:10.852Z,50.84
2023-04-27T16:34:38.094Z,50.90
2023-04-27T16:37:04.569Z,50.81
2023-04-27T16:39:30.982Z,51.54
2023-04-27T16:41:57.357Z,52.70
2023-04-27T16:44:23.851Z,52.09
2023-04-27T16:46:53.622Z,51.73
2023-04-27T16:49:19.998Z,50.98
2023-04-27T16:51:46.414Z,51.54
2023-04-27T16:54:16.191Z,51.69
2023-04-27T16:56:42.702Z,52.15
2023-04-27T16:59:12.181Z,51.73
2023-04-27T17:01:39.092Z,51.30
2023-04-27T17:04:05.704Z,51.95
2023-04-27T17:06:33.099Z,52.02
2023-04-27T17:08:59.463Z,51.76
2023-04-27T17:11:26.358Z,52.74
2023-04-27T17:13:52.760Z,52.47
2023-04-27T17:16:19.438Z,54.92
2023-04-27T17:18:49.040Z,54.11
2023-04-27T17:21:16.736Z,55.06
2023-04-27T17:23:43.119Z,53.84
2023-04-27T17:26:09.951Z,53.80
2023-04-27T17:28:36.389Z,54.51
2023-04-27T17:31:02.902Z,54.98
2023-04-27T17:33:29.249Z,55.41
2023-04-27T17:35:55.634Z,56.58
2023-04-27T17:38:22.056Z,56.88
2023-04-27T17:40:48.432Z,56.80
2023-04-27T17:43:14.774Z,57.06
2023-04-27T17:45:41.190Z,56.44
2023-04-27T17:48:07.693Z,56.44
2023-04-27T17:50:35.929Z,57.20
2023-04-27T17:53:02.351Z,56.76
2023-04-27T17:55:28.847Z,57.43
2023-04-27T17:57:55.330Z,57.69
2023-04-27T18:00:22.285Z,57.57
2023-04-27T18:02:49.760Z,57.72
2023-04-27T18:05:17.107Z,58.23
2023-04-27T18:07:46.024Z,60.13
2023-04-27T18:10:12.471Z,58.87
2023-04-27T18:12:38.804Z,57.84
2023-04-27T18:15:07.656Z,58.87
2023-04-27T18:17:35.970Z,58.88
2023-04-27T18:20:09.520Z,58.56
2023-04-27T18:22:38.452Z,59.36
2023-04-27T18:25:05.270Z,58.06
2023-04-27T18:27:32.809Z,61.41
2023-04-27T18:29:59.302Z,60.08
2023-04-27T18:32:25.917Z,60.32
2023-04-27T18:34:52.352Z,60.39
2023-04-27T18:37:18.714Z,60.71
2023-04-27T18:39:45.138Z,60.66
2023-04-27T18:42:11.563Z,61.45
2023-04-27T18:44:37.958Z,61.54
2023-04-27T18:47:04.558Z,62.02
2023-04-27T18:49:31.030Z,61.65
2023-04-27T18:51:57.445Z,63.40
2023-04-27T18:54:23.900Z,64.23
2023-04-27T18:56:52.976Z,63.37
2023-04-27T18:59:20.114Z,64.04
2023-04-27T19:01:46.654Z,64.48
2023-04-27T19:04:13.335Z,65.02
2023-04-27T19:06:39.911Z,64.78
2023-04-27T19:09:06.263Z,66.55
2023-04-27T19:11:32.646Z,66.45
2023-04-27T19:13:59.088Z,65.82
2023-04-27T19:16:25.587Z,65.74
2023-04-27T19:18:52.008Z,67.08
2023-04-27T19:21:18.386Z,67.60
2023-04-27T19:23:45.402Z,67.27
2023-04-27T19:26:13.937Z,68.47
2023-04-27T19:28:40.894Z,68.44
2023-04-27T19:31:07.592Z,68.49
2023-04-27T19:33:34.109Z,69.20
2023-04-27T19:36:00.808Z,68.90
2023-04-27T19:38:27.242Z,69.88
2023-04-27T19:40:53.650Z,70.33
2023-04-27T19:43:19.990Z,70.56
2023-04-27T19:45:48.722Z,70.69
2023-04-27T19:48:15.565Z,71.67
2023-04-27T19:50:42.352Z,71.26
2023-04-27T19:53:09.298Z,71.11
2023-04-27T19:55:35.868Z,71.58
2023-04-27T19:58:02.359Z,71.99
2023-04-27T20:00:28.732Z,71.74
2023-04-27T20:02:56.501Z,72.17
2023-04-27T20:05:23.565Z,72.52
2023-04-27T20:07:50.121Z,72.36
2023-04-27T20:10:16.743Z,71.96
2023-04-27T20:12:55.467Z,72.11
2023-04-27T20:15:22.882Z,72.52
2023-04-27T20:17:49.319Z,72.74
2023-04-27T20:20:15.792Z,72.78
2023-04-27T20:22:42.191Z,72.25
2023-04-27T20:25:08.908Z,71.77
2023-04-27T20:27:35.799Z,73.35
2023-04-27T20:30:02.145Z,73.42
2023-04-27T20:32:28.531Z,72.77
2023-04-27T20:34:54.886Z,74.01
2023-04-27T20:37:21.319Z,73.29
2023-04-27T20:39:47.900Z,72.35
2023-04-27T20:42:14.386Z,72.01
2023-04-27T20:44:40.740Z,72.02
2023-04-27T20:47:07.181Z,71.79
2023-04-27T20:49:35.349Z,72.74
2023-04-27T20:52:02.215Z,73.96
2023-04-27T20:54:30.943Z,72.67
2023-04-27T20:56:57.760Z,73.38
2023-04-27T20:59:24.238Z,73.54
2023-04-27T21:01:50.668Z,74.86
2023-04-27T21:04:17.265Z,74.81
2023-04-27T21:06:43.998Z,74.96
2023-04-27T21:09:10.507Z,74.47
2023-04-27T21:11:36.879Z,74.36
2023-04-27T21:14:03.216Z,73.45
2023-04-27T21:16:29.749Z,72.89
2023-04-27T21:18:56.188Z,72.18
2023-04-27T21:21:22.598Z,71.94
2023-04-27T21:23:54.393Z,71.66
2023-04-27T21:26:27.384Z,72.80
2023-04-27T21:28:53.729Z,71.89
2023-04-27T21:31:20.814Z,71.74
2023-04-27T21:33:47.311Z,71.25
2023-04-27T21:36:13.669Z,70.03
2023-04-27T21:38:40.022Z,69.70
2023-04-27T21:41:06.440Z,69.71
2023-04-27T21:43:33.059Z,69.05
2023-04-27T21:45:59.635Z,69.17
2023-04-27T21:48:26.040Z,68.67
2023-04-27T21:50:52.396Z,69.20
2023-04-27T21:53:18.778Z,69.61
2023-04-27T21:55:45.107Z,68.83
2023-04-27T21:58:11.569Z,69.82
2023-04-27T22:00:38.527Z,71.12
2023-04-27T22:03:05.169Z,71.26
2023-04-27T22:05:33.395Z,70.92
2023-04-27T22:07:59.825Z,71.88
2023-04-27T22:10:26.219Z,71.25
2023-04-27T22:12:52.606Z,73.02
2023-04-27T22:15:20.282Z,71.87
2023-04-27T22:17:47.162Z,71.36
2023-04-27T22:20:14.310Z,71.68
2023-04-27T22:22:41.114Z,71.30
2023-04-27T22:25:08.041Z,69.91
2023-04-27T22:27:41.945Z,68.80
2023-04-27T22:30:11.425Z,68.56
2023-04-27T22:32:37.947Z,67.35
2023-04-27T22:35:06.928Z,66.27
2023-04-27T22:37:35.329Z,67.25
2023-04-27T22:40:01.766Z,64.42
2023-04-27T22:42:28.173Z,65.25
2023-04-27T22:44:54.490Z,64.78
2023-04-27T22:47:21.002Z,65.13
2023-04-27T22:49:48.336Z,63.98
2023-04-27T22:52:16.393Z,64.93
2023-04-27T22:54:42.728Z,63.79
2023-04-27T22:57:09.135Z,64.06
2023-04-27T22:59:35.666Z,62.29
2023-04-27T23:02:02.171Z,62.88
2023-04-27T23:04:29.060Z,63.59
2023-04-27T23:06:55.600Z,63.04
2023-04-27T23:09:22.547Z,63.81
2023-04-27T23:11:50.874Z,63.42
2023-04-27T23:14:20.930Z,65.76
2023-04-27T23:16:47.339Z,63.08
2023-04-27T23:19:13.789Z,63.56
2023-04-27T23:21:40.562Z,62.81
2023-04-27T23:24:06.987Z,63.26
2023-04-27T23:26:33.426Z,62.18
2023-04-27T23:28:59.794Z,62.26
2023-04-27T23:31:26.400Z,61.80
2023-04-27T23:33:52.889Z,60.59
2023-04-27T23:36:19.289Z,62.46
2023-04-27T23:38:45.648Z,62.85
2023-04-27T23:41:12.122Z,63.10
2023-04-27T23:43:38.580Z,62.94
2023-04-27T23:46:05.676Z,63.98
2023-04-27T23:48:32.374Z,63.30
2023-04-27T23:51:03.353Z,62.52
2023-04-27T23:53:30.472Z,62.41
2023-04-27T23:55:57.384Z,64.15
2023-04-27T23:58:24.842Z,63.39
